Time,TemperatureF,DewpointF,PressureIn,WindDirection,WindDirectionDegrees,WindSpeedMPH,WindSpeedGustMPH,Humidity,HourlyPrecipIn,Conditions,Clouds,dailyrainin,SoftwareType,DateUTC
2013-10-01 00:00:00,62.4,50.1,29.76,South,180,2.7,2.7,64,0.00,,,0.00,VWS V14.01,2013-10-01 05:00:00,
2013-10-01 00:05:00,62.6,50.3,29.76,South,180,2.7,2.7,64,0.00,,,0.00,VWS V14.01,2013-10-01 05:05:00,
2013-10-01 00:11:00,62.4,50.1,29.76,South,180,2.7,2.7,64,0.00,,,0.00,VWS V14.01,2013-10-01 05:11:00,
2013-10-01 00:16:00,62.6,50.3,29.76,South,180,2.7,2.7,64,0.00,,,0.00,VWS V14.01,2013-10-01 05:16:00,
2013-10-01 00:21:00,62.6,50.3,29.76,South,180,2.7,2.7,64,0.00,,,0.00,VWS V14.01,2013-10-01 05:21:00,
2013-10-01 00:26:00,62.8,50.4,29.76,South,180,2.7,2.7,64,0.00,,,0.00,VWS V14.01,2013-10-01 05:26:00,
2013-10-01 00:31:00,62.8,50.4,29.76,South,180,2.7,2.7,64,0.00,,,0.00,VWS V14.01,2013-10-01 05:31:00,
2013-10-01 00:36:00,63.0,50.6,29.74,South,180,2.7,2.7,64,0.00,,,0.00,VWS V14.01,2013-10-01 05:36:00,
2013-10-01 00:41:00,63.1,50.3,29.74,South,180,2.7,2.7,63,0.00,,,0.00,VWS V14.01,2013-10-01 05:41:00,
2013-10-01 00:47:00,63.1,50.8,29.74,SSE,158,1.1,2.7,64,0.00,,,0.00,VWS V14.01,2013-10-01 05:47:00,
2013-10-01 00:52:00,63.1,50.8,29.76,SSE,158,4.3,4.3,64,0.00,,,0.00,VWS V14.01,2013-10-01 05:52:00,
2013-10-01 00:57:00,63.1,50.8,29.76,SSE,158,4.3,4.3,64,0.00,,,0.00,VWS V14.01,2013-10-01 05:57:00,
2013-10-01 01:01:00,37.8,36.5,30.06,SSW,202,2.9,2.9,95,0.00,,,0.00,VWS V14.01,2013-10-01 06:01:00,
2013-10-01 01:02:00,63.1,50.8,29.76,NE,45,0.9,4.3,64,0.00,,,0.00,VWS V14.01,2013-10-01 06:02:00,
2013-10-01 01:07:00,63.1,50.8,29.76,NE,45,0.9,0.9,64,0.00,,,0.00,VWS V14.01,2013-10-01 06:07:00,
2013-10-01 01:12:00,63.3,51.0,29.76,NE,45,0.9,0.9,64,0.00,,,0.00,VWS V14.01,2013-10-01 06:12:00,
2013-10-01 01:17:00,63.5,51.1,29.76,NE,45,0.9,0.9,64,0.00,,,0.00,VWS V14.01,2013-10-01 06:17:00,
2013-10-01 01:23:00,63.5,51.1,29.74,NE,45,0.9,0.9,64,0.00,,,0.00,VWS V14.01,2013-10-01 06:23:00,
2013-10-01 01:28:00,63.7,51.3,29.74,SW,225,5.4,5.4,64,0.00,,,0.00,VWS V14.01,2013-10-01 06:28:00,
2013-10-01 01:33:00,63.9,51.5,29.74,SW,225,5.4,5.4,64,0.00,,,0.00,VWS V14.01,2013-10-01 06:33:00,
2013-10-01 01:38:00,63.9,51.0,29.74,SW,225,5.4,5.4,63,0.00,,,0.00,VWS V14.01,2013-10-01 06:38:00,
2013-10-01 01:43:00,63.9,51.5,29.74,SW,225,5.4,5.4,64,0.00,,,0.00,VWS V14.01,2013-10-01 06:43:00,
2013-10-01 01:48:00,63.9,51.5,29.74,SW,225,5.4,5.4,64,0.00,,,0.00,VWS V14.01,2013-10-01 06:48:00,
2013-10-01 01:53:00,63.7,51.3,29.74,SW,225,5.4,5.4,64,0.00,,,0.00,VWS V14.01,2013-10-01 06:53:00,
2013-10-01 01:58:00,63.5,51.1,29.74,SW,225,5.4,5.4,64,0.00,,,0.00,VWS V14.01,2013-10-01 06:58:00,
2013-10-01 02:03:00,63.5,51.1,29.74,SW,225,5.4,5.4,64,0.00,,,0.00,VWS V14.01,2013-10-01 07:03:00,
2013-10-01 02:08:00,63.3,51.0,29.74,SW,225,5.4,5.4,64,0.00,,,0.00,VWS V14.01,2013-10-01 07:08:00,
2013-10-01 02:13:00,63.1,51.2,29.74,SW,225,5.4,5.4,65,0.00,,,0.00,VWS V14.01,2013-10-01 07:13:00,
2013-10-01 02:19:00,63.1,51.2,29.74,SW,225,5.4,5.4,65,0.00,,,0.00,VWS V14.01,2013-10-01 07:19:00,
2013-10-01 02:24:00,63.1,51.2,29.74,South,180,3.1,5.4,65,0.00,,,0.00,VWS V14.01,2013-10-01 07:24:00,
2013-10-01 02:29:00,63.0,51.4,29.74,South,180,3.1,3.1,66,0.00,,,0.00,VWS V14.01,2013-10-01 07:29:00,
2013-10-01 02:34:00,62.8,51.3,29.71,South,180,3.1,3.1,66,0.00,,,0.00,VWS V14.01,2013-10-01 07:34:00,
2013-10-01 02:39:00,63.0,51.4,29.71,South,180,3.1,3.1,66,0.00,,,0.00,VWS V14.01,2013-10-01 07:39:00,
2013-10-01 02:44:00,63.1,51.6,29.71,South,180,3.1,3.1,66,0.00,,,0.00,VWS V14.01,2013-10-01 07:44:00,
2013-10-01 02:49:00,63.1,51.6,29.71,South,180,3.1,3.1,66,0.00,,,0.00,VWS V14.01,2013-10-01 07:49:00,
2013-10-01 02:55:00,63.1,51.6,29.71,South,180,3.1,3.1,66,0.00,,,0.00,VWS V14.01,2013-10-01 07:55:00,
2013-10-01 03:00:00,63.1,51.6,29.71,South,180,3.1,3.1,66,0.00,,,0.00,VWS V14.01,2013-10-01 08:00:00,
2013-10-01 03:05:00,63.3,51.8,29.71,South,180,3.1,3.1,66,0.00,,,0.00,VWS V14.01,2013-10-01 08:05:00,
2013-10-01 03:11:00,63.3,51.8,29.71,South,180,3.1,3.1,66,0.00,,,0.00,VWS V14.01,2013-10-01 08:11:00,
2013-10-01 03:16:00,63.3,52.2,29.71,South,180,3.1,3.1,67,0.00,,,0.00,VWS V14.01,2013-10-01 08:16:00,
2013-10-01 03:21:00,63.5,52.0,29.71,South,180,3.1,3.1,66,0.00,,,0.00,VWS V14.01,2013-10-01 08:21:00,
2013-10-01 03:26:00,63.5,52.0,29.71,SSE,158,2.7,3.1,66,0.00,,,0.00,VWS V14.01,2013-10-01 08:26:00,
2013-10-01 03:31:00,63.5,52.0,29.71,SSE,158,2.7,2.7,66,0.00,,,0.00,VWS V14.01,2013-10-01 08:31:00,
2013-10-01 03:36:00,63.5,52.0,29.71,SSE,158,2.7,2.7,66,0.00,,,0.00,VWS V14.01,2013-10-01 08:36:00,
2013-10-01 03:41:00,63.5,52.4,29.71,SSE,158,2.7,2.7,67,0.00,,,0.00,VWS V14.01,2013-10-01 08:41:00,
2013-10-01 03:47:00,63.5,52.4,29.71,SSE,158,2.7,2.7,67,0.00,,,0.00,VWS V14.01,2013-10-01 08:47:00,
2013-10-01 03:52:00,63.3,52.2,29.71,SSE,158,2.7,2.7,67,0.00,,,0.00,VWS V14.01,2013-10-01 08:52:00,
2013-10-01 03:57:00,63.3,52.2,29.71,SE,135,1.3,2.7,67,0.00,,,0.00,VWS V14.01,2013-10-01 08:57:00,
2013-10-01 04:02:00,63.3,52.2,29.71,SE,135,1.3,1.3,67,0.00,,,0.00,VWS V14.01,2013-10-01 09:02:00,
2013-10-01 04:07:00,63.3,52.2,29.71,SE,135,1.3,1.3,67,0.00,,,0.00,VWS V14.01,2013-10-01 09:07:00,
2013-10-01 04:12:00,63.1,52.0,29.71,SE,135,1.3,1.3,67,0.00,,,0.00,VWS V14.01,2013-10-01 09:12:00,
2013-10-01 04:17:00,63.1,52.4,29.71,SE,135,1.3,1.3,68,0.00,,,0.00,VWS V14.01,2013-10-01 09:17:00,
2013-10-01 04:23:00,63.1,52.4,29.71,SE,135,1.3,1.3,68,0.00,,,0.00,VWS V14.01,2013-10-01 09:23:00,
2013-10-01 04:28:00,63.1,52.4,29.71,SE,135,1.3,1.3,68,0.00,,,0.00,VWS V14.01,2013-10-01 09:28:00,
2013-10-01 04:33:00,63.1,52.4,29.71,SE,135,1.3,1.3,68,0.00,,,0.00,VWS V14.01,2013-10-01 09:33:00,
2013-10-01 04:38:00,63.3,52.6,29.71,South,180,1.3,1.3,68,0.00,,,0.00,VWS V14.01,2013-10-01 09:38:00,
2013-10-01 04:43:00,63.3,52.6,29.71,South,180,1.3,1.3,68,0.00,,,0.00,VWS V14.01,2013-10-01 09:43:00,
2013-10-01 04:48:00,63.3,52.6,29.71,SSE,158,2.5,2.5,68,0.00,,,0.00,VWS V14.01,2013-10-01 09:48:00,
2013-10-01 04:53:00,63.5,52.8,29.71,SSE,158,2.5,2.5,68,0.00,,,0.00,VWS V14.01,2013-10-01 09:53:00,
2013-10-01 04:58:00,63.5,52.8,29.71,SSE,158,2.5,2.5,68,0.00,,,0.00,VWS V14.01,2013-10-01 09:58:00,
2013-10-01 05:03:00,63.5,52.8,29.71,SSE,158,2.5,2.5,68,0.00,,,0.00,VWS V14.01,2013-10-01 10:03:00,
2013-10-01 05:08:00,63.5,52.8,29.71,SSE,158,2.5,2.5,68,0.00,,,0.00,VWS V14.01,2013-10-01 10:08:00,
2013-10-01 05:13:00,63.0,52.6,29.71,SSE,158,2.5,2.5,69,0.00,,,0.00,VWS V14.01,2013-10-01 10:13:00,
2013-10-01 05:18:00,63.0,52.6,29.71,SSE,158,2.5,2.5,69,0.00,,,0.00,VWS V14.01,2013-10-01 10:18:00,
2013-10-01 05:23:00,63.0,52.6,29.71,SSE,158,0.9,2.5,69,0.00,,,0.00,VWS V14.01,2013-10-01 10:23:00,
2013-10-01 05:28:00,62.6,52.3,29.71,SSE,158,0.9,0.9,69,0.00,,,0.00,VWS V14.01,2013-10-01 10:28:00,
2013-10-01 05:34:00,62.6,52.7,29.71,SSE,158,0.9,0.9,70,0.00,,,0.00,VWS V14.01,2013-10-01 10:34:00,
2013-10-01 05:39:00,62.4,52.9,29.71,SSE,158,0.9,0.9,71,0.00,,,0.00,VWS V14.01,2013-10-01 10:39:00,
2013-10-01 05:44:00,62.4,52.9,29.71,SSE,158,0.9,0.9,71,0.00,,,0.00,VWS V14.01,2013-10-01 10:44:00,
2013-10-01 05:49:00,62.1,52.6,29.71,SSE,158,0.9,0.9,71,0.00,,,0.00,VWS V14.01,2013-10-01 10:49:00,
2013-10-01 05:54:00,62.1,52.9,29.71,SSE,158,0.9,0.9,72,0.00,,,0.00,VWS V14.01,2013-10-01 10:54:00,
2013-10-01 05:59:00,61.9,52.8,29.71,SSE,158,0.9,0.9,72,0.00,,,0.00,VWS V14.01,2013-10-01 10:59:00,
2013-10-01 06:04:00,61.9,52.8,29.71,SE,135,1.6,1.6,72,0.00,,,0.00,VWS V14.01,2013-10-01 11:04:00,
2013-10-01 06:10:00,61.7,53.0,29.71,SE,135,1.6,1.6,73,0.00,,,0.00,VWS V14.01,2013-10-01 11:10:00,
2013-10-01 06:15:00,61.7,52.6,29.71,SE,135,1.6,1.6,72,0.00,,,0.00,VWS V14.01,2013-10-01 11:15:00,
2013-10-01 06:20:00,61.7,53.0,29.71,SE,135,1.6,1.6,73,0.00,,,0.00,VWS V14.01,2013-10-01 11:20:00,
2013-10-01 06:25:00,61.7,53.3,29.71,SE,135,1.6,1.6,74,0.00,,,0.00,VWS V14.01,2013-10-01 11:25:00,
2013-10-01 06:31:00,61.7,53.3,29.71,SE,135,1.6,1.6,74,0.00,,,0.00,VWS V14.01,2013-10-01 11:31:00,
2013-10-01 06:36:00,61.7,53.3,29.71,SE,135,1.6,1.6,74,0.00,,,0.00,VWS V14.01,2013-10-01 11:36:00,
2013-10-01 06:41:00,61.5,53.2,29.71,SE,135,1.6,1.6,74,0.00,,,0.00,VWS V14.01,2013-10-01 11:41:00,
2013-10-01 06:46:00,61.3,53.0,29.71,NNE,22,1.3,1.3,74,0.00,,,0.00,VWS V14.01,2013-10-01 11:46:00,
2013-10-01 06:51:00,61.2,53.2,29.74,NNE,22,1.3,1.3,75,0.00,,,0.00,VWS V14.01,2013-10-01 11:51:00,
2013-10-01 06:56:00,61.2,53.5,29.74,NNE,22,1.3,1.3,76,0.00,,,0.00,VWS V14.01,2013-10-01 11:56:00,
2013-10-01 07:02:00,61.2,53.9,29.74,NNE,22,1.3,1.3,77,0.00,,,0.00,VWS V14.01,2013-10-01 12:02:00,
2013-10-01 07:07:00,61.3,54.1,29.74,NNE,22,1.3,1.3,77,0.00,,,0.00,VWS V14.01,2013-10-01 12:07:00,
2013-10-01 07:12:00,61.3,53.7,29.74,NNE,22,1.3,1.3,76,0.00,,,0.00,VWS V14.01,2013-10-01 12:12:00,
2013-10-01 07:17:00,61.0,53.7,29.74,South,180,1.6,1.6,77,0.00,,,0.00,VWS V14.01,2013-10-01 12:17:00,
2013-10-01 07:22:00,61.0,53.7,29.74,SSE,158,1.6,1.6,77,0.00,,,0.00,VWS V14.01,2013-10-01 12:22:00,
2013-10-01 07:27:00,61.0,53.7,29.74,ESE,112,1.1,1.6,77,0.00,,,0.00,VWS V14.01,2013-10-01 12:27:00,
2013-10-01 07:32:00,61.0,53.7,29.74,ESE,112,1.1,1.1,77,0.00,,,0.00,VWS V14.01,2013-10-01 12:32:00,
2013-10-01 07:38:00,61.0,53.7,29.76,SSE,158,2.2,2.2,77,0.00,,,0.00,VWS V14.01,2013-10-01 12:38:00,
2013-10-01 07:43:00,61.2,54.3,29.76,SSW,202,3.8,3.8,78,0.00,,,0.00,VWS V14.01,2013-10-01 12:43:00,
2013-10-01 07:48:00,61.2,54.3,29.76,SSW,202,3.8,3.8,78,0.00,,,0.00,VWS V14.01,2013-10-01 12:48:00,
2013-10-01 07:53:00,61.3,54.4,29.76,SSW,202,3.8,3.8,78,0.00,,,0.00,VWS V14.01,2013-10-01 12:53:00,
2013-10-01 07:59:00,61.9,55.0,29.76,South,180,1.6,3.8,78,0.00,,,0.00,VWS V14.01,2013-10-01 12:59:00,
2013-10-01 08:04:00,62.2,55.0,29.76,SSW,202,2.0,2.0,77,0.00,,,0.00,VWS V14.01,2013-10-01 13:04:00,
2013-10-01 08:09:00,62.4,55.1,29.76,SSE,158,0.0,2.0,77,0.00,,,0.00,VWS V14.01,2013-10-01 13:09:00,
2013-10-01 08:14:00,62.6,54.9,29.76,ENE,68,1.1,1.1,76,0.00,,,0.00,VWS V14.01,2013-10-01 13:14:00,
2013-10-01 08:19:00,62.6,54.9,29.79,ENE,68,0.9,3.1,76,0.00,,,0.00,VWS V14.01,2013-10-01 13:19:00,
2013-10-01 08:25:00,63.0,55.3,29.79,SSE,158,0.0,0.0,76,0.00,,,0.00,VWS V14.01,2013-10-01 13:25:00,
2013-10-01 08:30:00,63.1,55.5,29.79,South,180,2.5,2.5,76,0.00,,,0.00,VWS V14.01,2013-10-01 13:30:00,
2013-10-01 08:35:00,63.5,55.4,29.76,South,180,1.6,1.6,75,0.00,,,0.00,VWS V14.01,2013-10-01 13:35:00,
2013-10-01 08:40:00,63.7,55.2,29.76,SE,135,1.1,1.1,74,0.00,,,0.00,VWS V14.01,2013-10-01 13:40:00,
2013-10-01 08:45:00,64.0,54.8,29.76,SE,135,1.6,2.9,72,0.00,,,0.00,VWS V14.01,2013-10-01 13:45:00,
2013-10-01 08:51:00,64.0,55.2,29.76,SSE,158,0.9,3.1,73,0.00,,,0.00,VWS V14.01,2013-10-01 13:51:00,
2013-10-01 08:56:00,64.4,55.6,29.76,WNW,292,3.1,3.1,73,0.00,,,0.00,VWS V14.01,2013-10-01 13:56:00,
2013-10-01 09:01:00,64.8,55.5,29.76,East,90,0.0,2.7,72,0.00,,,0.00,VWS V14.01,2013-10-01 14:01:00,
2013-10-01 09:06:00,65.1,55.5,29.76,SSW,202,2.5,2.5,71,0.00,,,0.00,VWS V14.01,2013-10-01 14:06:00,
2013-10-01 09:11:00,65.3,55.7,29.76,North,0,1.6,2.5,71,0.00,,,0.00,VWS V14.01,2013-10-01 14:11:00,
2013-10-01 09:16:00,65.3,55.3,29.76,South,180,1.1,2.5,70,0.00,,,0.00,VWS V14.01,2013-10-01 14:16:00,
2013-10-01 09:21:00,65.3,56.0,29.76,SW,225,1.1,1.6,72,0.00,,,0.00,VWS V14.01,2013-10-01 14:21:00,
2013-10-01 09:26:00,65.1,55.5,29.76,East,90,2.5,2.5,71,0.00,,,0.00,VWS V14.01,2013-10-01 14:26:00,
2013-10-01 09:31:00,65.3,56.0,29.76,ENE,68,0.9,2.0,72,0.00,,,0.00,VWS V14.01,2013-10-01 14:31:00,
2013-10-01 09:37:00,66.2,56.1,29.79,WSW,248,0.0,2.7,70,0.00,,,0.00,VWS V14.01,2013-10-01 14:37:00,
2013-10-01 09:42:00,66.6,56.5,29.79,WNW,292,2.9,3.4,70,0.00,,,0.00,VWS V14.01,2013-10-01 14:42:00,
2013-10-01 09:47:00,67.6,56.7,29.79,SSE,158,2.5,5.6,68,0.00,,,0.00,VWS V14.01,2013-10-01 14:47:00,
2013-10-01 09:52:00,68.5,57.2,29.79,NNW,338,2.0,3.6,67,0.00,,,0.00,VWS V14.01,2013-10-01 14:52:00,
2013-10-01 09:57:00,69.3,57.4,29.79,SSE,158,1.1,5.4,66,0.00,,,0.00,VWS V14.01,2013-10-01 14:57:00,
2013-10-01 10:02:00,69.6,56.0,29.79,SW,225,2.0,7.2,62,0.00,,,0.00,VWS V14.01,2013-10-01 15:02:00,
2013-10-01 10:07:00,70.2,55.2,29.79,NNW,338,6.5,8.7,59,0.00,,,0.00,VWS V14.01,2013-10-01 15:07:00,
2013-10-01 10:12:00,70.5,55.5,29.79,NNW,338,6.0,8.5,59,0.00,,,0.00,VWS V14.01,2013-10-01 15:12:00,
2013-10-01 10:17:00,70.5,55.0,29.79,ENE,68,7.2,8.7,58,0.00,,,0.00,VWS V14.01,2013-10-01 15:17:00,
2013-10-01 10:23:00,71.1,55.1,29.82,SE,135,3.4,7.8,57,0.00,,,0.00,VWS V14.01,2013-10-01 15:23:00,
2013-10-01 10:28:00,71.2,54.8,29.82,West,270,3.1,8.5,56,0.00,,,0.00,VWS V14.01,2013-10-01 15:28:00,
2013-10-01 10:33:00,71.8,55.3,29.82,SE,135,2.5,7.6,56,0.00,,,0.00,VWS V14.01,2013-10-01 15:33:00,
2013-10-01 10:38:00,71.1,54.1,29.82,SSE,158,8.1,10.3,55,0.00,,,0.00,VWS V14.01,2013-10-01 15:38:00,
2013-10-01 10:43:00,71.1,54.6,29.82,NE,45,1.3,8.1,56,0.00,,,0.00,VWS V14.01,2013-10-01 15:43:00,
2013-10-01 10:48:00,71.1,55.1,29.79,SW,225,1.3,4.0,57,0.00,,,0.00,VWS V14.01,2013-10-01 15:48:00,
2013-10-01 10:53:00,70.9,54.4,29.79,NW,315,1.3,7.6,56,0.00,,,0.00,VWS V14.01,2013-10-01 15:53:00,
2013-10-01 10:58:00,71.1,54.6,29.79,South,180,2.9,3.6,56,0.00,,,0.00,VWS V14.01,2013-10-01 15:58:00,
2013-10-01 11:03:00,71.8,55.3,29.82,NNW,338,4.0,5.8,56,0.00,,,0.00,VWS V14.01,2013-10-01 16:03:00,
2013-10-01 11:08:00,72.1,55.1,29.82,WNW,292,3.1,5.8,55,0.00,,,0.00,VWS V14.01,2013-10-01 16:08:00,
2013-10-01 11:14:00,72.3,55.3,29.82,SE,135,1.1,1.1,55,0.00,,,0.00,VWS V14.01,2013-10-01 16:14:00,
2013-10-01 11:19:00,72.7,54.6,29.82,NW,315,2.7,5.8,53,0.00,,,0.00,VWS V14.01,2013-10-01 16:19:00,
2013-10-01 11:24:00,72.9,55.3,29.82,WSW,248,2.0,3.6,54,0.00,,,0.00,VWS V14.01,2013-10-01 16:24:00,
2013-10-01 11:29:00,72.7,54.6,29.82,ESE,112,3.1,3.1,53,0.00,,,0.00,VWS V14.01,2013-10-01 16:29:00,
2013-10-01 11:32:00,73.2,55.6,29.82,SW,225,5.6,5.6,54,0.00,,,0.00,VWS V14.01,2013-10-01 16:32:00,
2013-10-01 11:37:00,73.4,54.7,29.82,WSW,248,4.0,7.2,52,0.00,,,0.00,VWS V14.01,2013-10-01 16:37:00,
2013-10-01 11:42:00,74.1,55.4,29.82,South,180,1.6,7.2,52,0.00,,,0.00,VWS V14.01,2013-10-01 16:42:00,
2013-10-01 11:48:00,74.7,54.2,29.82,NNE,22,4.0,5.4,49,0.00,,,0.00,VWS V14.01,2013-10-01 16:48:00,
2013-10-01 11:53:00,75.0,54.0,29.82,SSE,158,3.4,6.5,48,0.00,,,0.00,VWS V14.01,2013-10-01 16:53:00,
2013-10-01 11:58:00,75.4,52.0,29.82,NW,315,5.4,8.5,44,0.00,,,0.00,VWS V14.01,2013-10-01 16:58:00,
2013-10-01 12:03:00,75.7,51.7,29.82,SSW,202,2.5,6.0,43,0.00,,,0.00,VWS V14.01,2013-10-01 17:03:00,
2013-10-01 12:08:00,75.9,51.2,29.82,SSW,202,3.1,7.8,42,0.00,,,0.00,VWS V14.01,2013-10-01 17:08:00,
2013-10-01 12:13:00,75.9,50.5,29.82,WNW,292,2.7,7.4,41,0.00,,,0.00,VWS V14.01,2013-10-01 17:13:00,
2013-10-01 12:18:00,76.3,50.2,29.82,NE,45,7.2,8.7,40,0.00,,,0.00,VWS V14.01,2013-10-01 17:18:00,
2013-10-01 12:24:00,76.3,50.2,29.82,NNW,338,6.3,6.3,40,0.00,,,0.00,VWS V14.01,2013-10-01 17:24:00,
2013-10-01 12:29:00,76.6,51.2,29.82,NW,315,0.9,0.9,41,0.00,,,0.00,VWS V14.01,2013-10-01 17:29:00,
2013-10-01 12:34:00,76.6,49.2,29.85,SSW,202,2.0,3.8,38,0.00,,,0.00,VWS V14.01,2013-10-01 17:34:00,
2013-10-01 12:39:00,76.6,49.8,29.85,South,180,6.3,6.3,39,0.00,,,0.00,VWS V14.01,2013-10-01 17:39:00,
2013-10-01 12:44:00,76.8,49.3,29.85,NE,45,3.4,6.5,38,0.00,,,0.00,VWS V14.01,2013-10-01 17:44:00,
2013-10-01 12:49:00,76.8,49.3,29.85,West,270,6.0,6.0,38,0.00,,,0.00,VWS V14.01,2013-10-01 17:49:00,
2013-10-01 12:54:00,77.0,49.5,29.85,SW,225,3.6,3.6,38,0.00,,,0.00,VWS V14.01,2013-10-01 17:54:00,
2013-10-01 12:59:00,76.8,48.6,29.85,West,270,2.7,3.8,37,0.00,,,0.00,VWS V14.01,2013-10-01 17:59:00,
2013-10-01 13:05:00,76.5,48.3,29.85,SW,225,5.8,5.8,37,0.00,,,0.00,VWS V14.01,2013-10-01 18:05:00,
2013-10-01 13:10:00,75.7,46.9,29.85,WSW,248,6.0,6.3,36,0.00,,,0.00,VWS V14.01,2013-10-01 18:10:00,
2013-10-01 13:15:00,75.7,46.9,29.85,South,180,2.9,5.8,36,0.00,,,0.00,VWS V14.01,2013-10-01 18:15:00,
2013-10-01 13:20:00,75.7,46.9,29.88,NW,315,2.7,3.6,36,0.00,,,0.00,VWS V14.01,2013-10-01 18:20:00,
2013-10-01 13:25:00,76.1,47.2,29.88,South,180,3.4,7.6,36,0.00,,,0.00,VWS V14.01,2013-10-01 18:25:00,
2013-10-01 13:31:00,76.5,47.5,29.88,NNE,22,2.5,6.0,36,0.00,,,0.00,VWS V14.01,2013-10-01 18:31:00,
2013-10-01 13:36:00,75.6,46.0,29.88,South,180,3.6,4.7,35,0.00,,,0.00,VWS V14.01,2013-10-01 18:36:00,
2013-10-01 13:41:00,75.7,46.2,29.88,SSE,158,2.5,8.7,35,0.00,,,0.00,VWS V14.01,2013-10-01 18:41:00,
2013-10-01 13:46:00,75.7,46.2,29.88,North,0,2.9,6.0,35,0.00,,,0.00,VWS V14.01,2013-10-01 18:46:00,
2013-10-01 13:51:00,76.1,46.5,29.88,NNE,22,3.8,5.8,35,0.00,,,0.00,VWS V14.01,2013-10-01 18:51:00,
2013-10-01 13:56:00,75.9,44.8,29.88,WSW,248,1.1,3.8,33,0.00,,,0.00,VWS V14.01,2013-10-01 18:56:00,
2013-10-01 14:01:00,76.1,44.9,29.88,WNW,292,3.1,5.6,33,0.00,,,0.00,VWS V14.01,2013-10-01 19:01:00,
2013-10-01 14:06:00,76.3,45.1,29.88,NW,315,2.5,9.0,33,0.00,,,0.00,VWS V14.01,2013-10-01 19:06:00,
2013-10-01 14:11:00,75.7,43.8,29.88,NE,45,5.6,6.3,32,0.00,,,0.00,VWS V14.01,2013-10-01 19:11:00,
2013-10-01 14:16:00,76.1,44.9,29.88,SSE,158,1.3,5.8,33,0.00,,,0.00,VWS V14.01,2013-10-01 19:16:00,
2013-10-01 14:21:00,76.6,45.4,29.88,SW,225,3.4,4.3,33,0.00,,,0.00,VWS V14.01,2013-10-01 19:21:00,
2013-10-01 14:27:00,77.4,44.4,29.88,NW,315,8.5,8.5,31,0.00,,,0.00,VWS V14.01,2013-10-01 19:27:00,
2013-10-01 14:32:00,76.8,43.9,29.88,West,270,7.4,9.8,31,0.00,,,0.00,VWS V14.01,2013-10-01 19:32:00,
2013-10-01 14:37:00,76.5,43.6,29.88,NNW,338,0.9,8.5,31,0.00,,,0.00,VWS V14.01,2013-10-01 19:37:00,
2013-10-01 14:42:00,76.5,43.6,29.88,SW,225,1.6,7.6,31,0.00,,,0.00,VWS V14.01,2013-10-01 19:42:00,
2013-10-01 14:47:00,76.5,43.6,29.88,West,270,1.3,4.7,31,0.00,,,0.00,VWS V14.01,2013-10-01 19:47:00,
2013-10-01 14:52:00,76.3,43.5,29.88,SSW,202,5.6,5.6,31,0.00,,,0.00,VWS V14.01,2013-10-01 19:52:00,
2013-10-01 14:57:00,76.1,44.1,29.88,NNW,338,1.6,4.0,32,0.00,,,0.00,VWS V14.01,2013-10-01 19:57:00,
2013-10-01 15:03:00,75.9,43.1,29.88,SSE,158,1.6,4.7,31,0.00,,,0.00,VWS V14.01,2013-10-01 20:03:00,
2013-10-01 15:08:00,75.7,43.0,29.88,North,0,3.4,6.3,31,0.00,,,0.00,VWS V14.01,2013-10-01 20:08:00,
2013-10-01 15:13:00,75.7,43.0,29.88,NNE,22,1.1,6.0,31,0.00,,,0.00,VWS V14.01,2013-10-01 20:13:00,
2013-10-01 15:18:00,75.7,43.0,29.88,WSW,248,2.5,6.9,31,0.00,,,0.00,VWS V14.01,2013-10-01 20:18:00,
2013-10-01 15:23:00,75.9,42.3,29.88,SSW,202,7.4,10.1,30,0.00,,,0.00,VWS V14.01,2013-10-01 20:23:00,
2013-10-01 15:28:00,76.5,42.8,29.88,SW,225,2.9,5.8,30,0.00,,,0.00,VWS V14.01,2013-10-01 20:28:00,
2013-10-01 15:33:00,76.8,42.2,29.91,NNW,338,2.7,7.4,29,0.00,,,0.00,VWS V14.01,2013-10-01 20:33:00,
2013-10-01 15:38:00,77.4,43.5,29.91,NNW,338,3.6,6.0,30,0.00,,,0.00,VWS V14.01,2013-10-01 20:38:00,
2013-10-01 15:43:00,76.8,40.3,29.91,NW,315,3.1,8.7,27,0.00,,,0.00,VWS V14.01,2013-10-01 20:43:00,
2013-10-01 15:48:00,76.1,38.8,29.85,NW,315,3.4,5.4,26,0.00,,,0.00,VWS V14.01,2013-10-01 20:48:00,
2013-10-01 15:53:00,75.4,39.1,29.85,SSE,158,2.9,7.6,27,0.00,,,0.00,VWS V14.01,2013-10-01 20:53:00,
2013-10-01 15:58:00,75.4,40.0,29.85,SSW,202,4.9,4.9,28,0.00,,,0.00,VWS V14.01,2013-10-01 20:58:00,
2013-10-01 16:04:00,75.6,41.1,29.88,NNW,338,2.0,8.5,29,0.00,,,0.00,VWS V14.01,2013-10-01 21:04:00,
2013-10-01 16:09:00,74.5,40.2,29.88,SSE,158,2.7,2.7,29,0.00,,,0.00,VWS V14.01,2013-10-01 21:09:00,
2013-10-01 16:14:00,75.0,41.5,29.88,NW,315,3.1,4.9,30,0.00,,,0.00,VWS V14.01,2013-10-01 21:14:00,
2013-10-01 16:19:00,75.7,40.3,29.88,SSE,158,4.5,4.5,28,0.00,,,0.00,VWS V14.01,2013-10-01 21:19:00,
2013-10-01 16:24:00,75.2,39.0,29.88,SSW,202,3.6,3.6,27,0.00,,,0.00,VWS V14.01,2013-10-01 21:24:00,
2013-10-01 16:29:00,74.8,40.5,29.88,NNW,338,2.7,2.9,29,0.00,,,0.00,VWS V14.01,2013-10-01 21:29:00,
2013-10-01 16:34:00,74.8,42.2,29.88,North,0,2.0,4.7,31,0.00,,,0.00,VWS V14.01,2013-10-01 21:34:00,
2013-10-01 16:39:00,74.8,41.4,29.88,South,180,3.6,3.6,30,0.00,,,0.00,VWS V14.01,2013-10-01 21:39:00,
2013-10-01 16:44:00,74.5,41.0,29.88,South,180,1.6,1.6,30,0.00,,,0.00,VWS V14.01,2013-10-01 21:44:00,
2013-10-01 16:49:00,74.3,40.0,29.91,SSW,202,2.7,2.7,29,0.00,,,0.00,VWS V14.01,2013-10-01 21:49:00,
2013-10-01 16:54:00,74.7,42.0,29.91,WNW,292,2.7,2.7,31,0.00,,,0.00,VWS V14.01,2013-10-01 21:54:00,
2013-10-01 16:59:00,74.3,40.9,29.91,South,180,3.8,3.8,30,0.00,,,0.00,VWS V14.01,2013-10-01 21:59:00,
2013-10-01 17:04:00,73.8,41.3,29.91,SSW,202,3.4,3.4,31,0.00,,,0.00,VWS V14.01,2013-10-01 22:04:00,
2013-10-01 17:10:00,73.4,41.0,29.91,West,270,1.6,3.6,31,0.00,,,0.00,VWS V14.01,2013-10-01 22:10:00,
2013-10-01 17:15:00,72.9,41.3,29.91,SE,135,2.9,2.9,32,0.00,,,0.00,VWS V14.01,2013-10-01 22:15:00,
2013-10-01 17:20:00,72.7,41.2,29.91,NNW,338,2.9,2.9,32,0.00,,,0.00,VWS V14.01,2013-10-01 22:20:00,
2013-10-01 17:25:00,72.3,40.8,29.91,SW,225,2.7,4.0,32,0.00,,,0.00,VWS V14.01,2013-10-01 22:25:00,
2013-10-01 17:30:00,72.1,40.7,29.91,WSW,248,2.2,2.2,32,0.00,,,0.00,VWS V14.01,2013-10-01 22:30:00,
2013-10-01 17:35:00,71.8,40.4,29.91,North,0,1.1,1.1,32,0.00,,,0.00,VWS V14.01,2013-10-01 22:35:00,
2013-10-01 17:40:00,71.4,40.8,29.91,North,0,1.6,1.6,33,0.00,,,0.00,VWS V14.01,2013-10-01 22:40:00,
2013-10-01 17:45:00,71.1,40.5,29.91,South,180,2.0,3.6,33,0.00,,,0.00,VWS V14.01,2013-10-01 22:45:00,
2013-10-01 17:50:00,70.7,40.2,29.91,NNW,338,0.0,3.1,33,0.00,,,0.00,VWS V14.01,2013-10-01 22:50:00,
2013-10-01 17:55:00,70.3,39.9,29.91,SSW,202,0.9,2.0,33,0.00,,,0.00,VWS V14.01,2013-10-01 22:55:00,
2013-10-01 18:00:00,70.0,40.3,29.91,North,0,0.0,2.2,34,0.00,,,0.00,VWS V14.01,2013-10-01 23:00:00,
2013-10-01 18:05:00,69.4,39.9,29.91,SW,225,0.0,3.4,34,0.00,,,0.00,VWS V14.01,2013-10-01 23:05:00,
2013-10-01 18:11:00,69.1,40.3,29.91,NE,45,0.9,2.7,35,0.00,,,0.00,VWS V14.01,2013-10-01 23:11:00,
2013-10-01 18:16:00,68.4,39.7,29.91,SE,135,0.0,0.0,35,0.00,,,0.00,VWS V14.01,2013-10-01 23:16:00,
2013-10-01 18:20:00,67.6,39.0,29.91,NW,315,0.0,0.9,35,0.00,,,0.00,VWS V14.01,2013-10-01 23:20:00,
2013-10-01 18:25:00,67.1,39.3,29.91,SSW,202,0.0,0.0,36,0.00,,,0.00,VWS V14.01,2013-10-01 23:25:00,
2013-10-01 18:30:00,66.4,38.6,29.91,SSW,202,0.0,0.0,36,0.00,,,0.00,VWS V14.01,2013-10-01 23:30:00,
2013-10-01 18:31:00,66.2,38.5,29.91,SSW,202,0.0,0.0,36,0.00,,,0.00,VWS V14.01,2013-10-01 23:31:00,
2013-10-01 18:36:00,65.3,38.4,29.91,NE,45,0.0,0.0,37,0.00,,,0.00,VWS V14.01,2013-10-01 23:36:00,
2013-10-01 18:41:00,64.8,37.9,29.91,SW,225,1.3,1.3,37,0.00,,,0.00,VWS V14.01,2013-10-01 23:41:00,
2013-10-01 18:47:00,64.2,38.1,29.91,SW,225,1.3,1.3,38,0.00,,,0.00,VWS V14.01,2013-10-01 23:47:00,
2013-10-01 18:52:00,63.7,37.6,29.91,SW,225,1.3,1.3,38,0.00,,,0.00,VWS V14.01,2013-10-01 23:52:00,
2013-10-01 18:57:00,63.0,37.0,29.91,SW,225,1.3,1.3,38,0.00,,,0.00,VWS V14.01,2013-10-01 23:57:00,
2013-10-01 19:02:00,62.1,36.2,29.91,SW,225,1.3,1.3,38,0.00,,,0.00,VWS V14.01,2013-10-02 00:02:00,
2013-10-01 19:07:00,61.3,35.5,29.94,SW,225,1.3,1.3,38,0.00,,,0.00,VWS V14.01,2013-10-02 00:07:00,
2013-10-01 19:12:00,60.6,35.5,29.94,SW,225,1.3,1.3,39,0.00,,,0.00,VWS V14.01,2013-10-02 00:12:00,
2013-10-01 19:17:00,59.9,34.9,29.94,SW,225,1.3,1.3,39,0.00,,,0.00,VWS V14.01,2013-10-02 00:17:00,
2013-10-01 19:22:00,59.4,35.1,29.94,NE,45,0.0,1.3,40,0.00,,,0.00,VWS V14.01,2013-10-02 00:22:00,
2013-10-01 19:26:00,59.0,35.3,29.94,NE,45,0.0,0.0,41,0.00,,,0.00,VWS V14.01,2013-10-02 00:26:00,
2013-10-01 19:31:00,58.5,35.5,29.94,NE,45,0.0,0.0,42,0.00,,,0.00,VWS V14.01,2013-10-02 00:31:00,
2013-10-01 19:36:00,58.1,35.7,29.91,NE,45,0.0,0.0,43,0.00,,,0.00,VWS V14.01,2013-10-02 00:36:00,
2013-10-01 19:41:00,57.6,36.4,29.91,NE,45,0.0,0.0,45,0.00,,,0.00,VWS V14.01,2013-10-02 00:41:00,
2013-10-01 19:46:00,56.8,36.3,29.91,NE,45,0.0,0.0,46,0.00,,,0.00,VWS V14.01,2013-10-02 00:46:00,
2013-10-01 19:51:00,56.1,35.6,29.91,NE,45,0.0,0.0,46,0.00,,,0.00,VWS V14.01,2013-10-02 00:51:00,
2013-10-01 19:56:00,55.6,35.2,29.91,NE,45,0.0,0.0,46,0.00,,,0.00,VWS V14.01,2013-10-02 00:56:00,
2013-10-01 20:01:00,55.0,35.7,29.91,NE,45,0.0,0.0,48,0.00,,,0.00,VWS V14.01,2013-10-02 01:01:00,
2013-10-01 20:06:00,54.5,35.8,29.91,NE,45,0.0,0.0,49,0.00,,,0.00,VWS V14.01,2013-10-02 01:06:00,
2013-10-01 20:11:00,54.0,35.2,29.91,NE,45,0.0,0.0,49,0.00,,,0.00,VWS V14.01,2013-10-02 01:11:00,
2013-10-01 20:17:00,54.0,35.2,29.91,NE,45,0.0,0.0,49,0.00,,,0.00,VWS V14.01,2013-10-02 01:17:00,
2013-10-01 20:22:00,53.2,35.6,29.94,NE,45,0.0,0.0,51,0.00,,,0.00,VWS V14.01,2013-10-02 01:22:00,
2013-10-01 20:27:00,52.9,35.3,29.94,NE,45,0.0,0.0,51,0.00,,,0.00,VWS V14.01,2013-10-02 01:27:00,
2013-10-01 20:32:00,52.2,36.0,29.94,NE,45,0.0,0.0,54,0.00,,,0.00,VWS V14.01,2013-10-02 01:32:00,
2013-10-01 20:37:00,51.6,35.5,29.94,NE,45,0.0,0.0,54,0.00,,,0.00,VWS V14.01,2013-10-02 01:37:00,
2013-10-01 20:42:00,51.3,35.2,29.94,NE,45,0.0,0.0,54,0.00,,,0.00,VWS V14.01,2013-10-02 01:42:00,
2013-10-01 20:47:00,50.7,35.2,29.94,NE,45,0.0,0.0,55,0.00,,,0.00,VWS V14.01,2013-10-02 01:47:00,
2013-10-01 20:52:00,50.2,35.1,29.94,NE,45,0.0,0.0,56,0.00,,,0.00,VWS V14.01,2013-10-02 01:52:00,
2013-10-01 20:58:00,49.6,35.5,29.94,NE,45,0.0,0.0,58,0.00,,,0.00,VWS V14.01,2013-10-02 01:58:00,
2013-10-01 21:03:00,49.1,35.4,29.94,NE,45,0.0,0.0,59,0.00,,,0.00,VWS V14.01,2013-10-02 02:03:00,
2013-10-01 21:08:00,48.6,35.3,29.94,NE,45,0.0,0.0,60,0.00,,,0.00,VWS V14.01,2013-10-02 02:08:00,
2013-10-01 21:13:00,48.2,35.4,29.94,NE,45,0.0,0.0,61,0.00,,,0.00,VWS V14.01,2013-10-02 02:13:00,
2013-10-01 21:18:00,47.8,35.5,29.94,NE,45,0.0,0.0,62,0.00,,,0.00,VWS V14.01,2013-10-02 02:18:00,
2013-10-01 21:23:00,47.5,35.5,29.94,NE,45,0.0,0.0,63,0.00,,,0.00,VWS V14.01,2013-10-02 02:23:00,
2013-10-01 21:28:00,47.1,35.6,29.94,NE,45,0.0,0.0,64,0.00,,,0.00,VWS V14.01,2013-10-02 02:28:00,
2013-10-01 21:33:00,46.8,35.6,29.97,NE,45,0.0,0.0,65,0.00,,,0.00,VWS V14.01,2013-10-02 02:33:00,
2013-10-01 21:38:00,46.6,35.8,29.97,NE,45,0.0,0.0,66,0.00,,,0.00,VWS V14.01,2013-10-02 02:38:00,
2013-10-01 21:43:00,46.2,35.9,29.97,NE,45,0.0,0.0,67,0.00,,,0.00,VWS V14.01,2013-10-02 02:43:00,
2013-10-01 21:48:00,45.9,35.5,29.97,NE,45,0.0,0.0,67,0.00,,,0.00,VWS V14.01,2013-10-02 02:48:00,
2013-10-01 21:54:00,45.5,35.6,29.97,NE,45,0.0,0.0,68,0.00,,,0.00,VWS V14.01,2013-10-02 02:54:00,
2013-10-01 21:59:00,45.1,35.6,29.97,NE,45,0.0,0.0,69,0.00,,,0.00,VWS V14.01,2013-10-02 02:59:00,
2013-10-01 22:04:00,45.0,35.8,29.97,NE,45,0.0,0.0,70,0.00,,,0.00,VWS V14.01,2013-10-02 03:04:00,
2013-10-01 22:09:00,44.6,35.4,30.00,NE,45,0.0,0.0,70,0.00,,,0.00,VWS V14.01,2013-10-02 03:09:00,
2013-10-01 22:14:00,44.2,35.5,30.00,NE,45,0.0,0.0,71,0.00,,,0.00,VWS V14.01,2013-10-02 03:14:00,
2013-10-01 22:19:00,43.7,35.3,30.00,NE,45,0.0,0.0,72,0.00,,,0.00,VWS V14.01,2013-10-02 03:19:00,
2013-10-01 22:24:00,43.5,35.1,30.00,NE,45,0.0,0.0,72,0.00,,,0.00,VWS V14.01,2013-10-02 03:24:00,
2013-10-01 22:30:00,43.3,35.3,30.00,NE,45,0.0,0.0,73,0.00,,,0.00,VWS V14.01,2013-10-02 03:30:00,
2013-10-01 22:35:00,43.2,35.5,30.00,NE,45,0.0,0.0,74,0.00,,,0.00,VWS V14.01,2013-10-02 03:35:00,
2013-10-01 22:40:00,43.0,35.3,30.00,NE,45,0.0,0.0,74,0.00,,,0.00,VWS V14.01,2013-10-02 03:40:00,
2013-10-01 22:45:00,43.0,35.6,30.00,NE,45,0.0,0.0,75,0.00,,,0.00,VWS V14.01,2013-10-02 03:45:00,
2013-10-01 22:50:00,42.8,36.1,30.00,NE,45,0.0,0.0,77,0.00,,,0.00,VWS V14.01,2013-10-02 03:50:00,
2013-10-01 22:55:00,42.6,35.9,30.00,NE,45,0.0,0.0,77,0.00,,,0.00,VWS V14.01,2013-10-02 03:55:00,
2013-10-01 23:01:00,42.4,35.8,30.00,NE,45,0.0,0.0,77,0.00,,,0.00,VWS V14.01,2013-10-02 04:01:00,
2013-10-01 23:02:00,42.3,35.6,30.00,NE,45,0.0,0.0,77,0.00,,,0.00,VWS V14.01,2013-10-02 04:02:00,
2013-10-01 23:04:00,42.3,35.6,30.00,NE,45,0.0,0.0,77,0.00,,,0.00,VWS V14.01,2013-10-02 04:04:00,
2013-10-01 23:10:00,42.1,35.4,30.00,NE,45,0.0,0.0,77,0.00,,,0.00,VWS V14.01,2013-10-02 04:10:00,
2013-10-01 23:15:00,41.9,35.5,30.00,NE,45,0.0,0.0,78,0.00,,,0.00,VWS V14.01,2013-10-02 04:15:00,
2013-10-01 23:20:00,41.7,35.7,29.97,NE,45,0.0,0.0,79,0.00,,,0.00,VWS V14.01,2013-10-02 04:20:00,
2013-10-01 23:25:00,41.5,35.5,29.97,NE,45,0.0,0.0,79,0.00,,,0.00,VWS V14.01,2013-10-02 04:25:00,
2013-10-01 23:30:00,41.4,35.3,29.97,NE,45,0.0,0.0,79,0.00,,,0.00,VWS V14.01,2013-10-02 04:30:00,
2013-10-01 23:35:00,41.2,35.5,30.00,NE,45,0.0,0.0,80,0.00,,,0.00,VWS V14.01,2013-10-02 04:35:00,
2013-10-01 23:40:00,41.0,35.3,30.00,NE,45,0.0,0.0,80,0.00,,,0.00,VWS V14.01,2013-10-02 04:40:00,
2013-10-01 23:46:00,40.6,35.3,30.00,NE,45,0.0,0.0,81,0.00,,,0.00,VWS V14.01,2013-10-02 04:46:00,
2013-10-01 23:51:00,40.6,35.9,29.97,NE,45,0.0,0.0,83,0.00,,,0.00,VWS V14.01,2013-10-02 04:51:00,
2013-10-01 23:56:00,40.6,35.6,29.97,NE,45,0.0,0.0,82,0.00,,,0.00,VWS V14.01,2013-10-02 04:56:00,